Date,TemperatureHighF,TemperatureAvgF,TemperatureLowF,DewpointHighF,DewpointAvgF,DewpointLowF,HumidityHigh,HumidityAvg,HumidityLow,PressureMaxIn,PressureMinIn,WindSpeedMaxMPH,WindSpeedAvgMPH,GustSpeedMaxMPH,PrecipitationSumIn
2013-1-1,38.7,32.4,28.6,28.2,25.1,22.1,90,75,61,30.53,30.43,14,4,22,0.00
2013-1-2,37.8,33.3,30.6,26.6,24.1,21.9,74,68,61,30.45,30.30,16,6,23,0.00
2013-1-3,36.5,33.3,30.7,33.8,24.9,20.5,96,72,58,30.33,30.23,14,5,23,0.08
2013-1-4,42.6,37.4,34.2,41.0,35.9,31.3,96,94,89,30.40,30.23,5,0,9,0.16
2013-1-5,37.2,35.6,34.0,36.5,32.3,27.7,100,88,76,30.27,30.21,8,2,17,0.02
2013-1-6,42.1,37.9,36.1,40.3,36.5,34.7,97,95,92,30.28,30.12,1,0,3,0.12
2013-1-7,47.7,43.3,36.3,47.1,42.5,35.6,99,97,95,30.24,30.03,5,1,11,1.16
2013-1-8,49.3,44.0,39.7,47.8,43.1,39.0,99,96,92,30.24,29.95,6,0,11,0.57
2013-1-9,42.1,37.2,33.6,41.5,36.2,32.5,98,96,94,29.99,29.73,4,0,12,0.82
2013-1-10,36.3,34.0,33.1,35.1,33.0,32.2,97,96,95,30.12,29.99,2,0,5,0.20
2013-1-11,36.1,32.9,28.6,33.6,31.0,26.2,97,93,85,30.34,30.12,4,0,5,0.01
2013-1-12,35.1,29.2,25.2,30.4,26.4,23.2,94,89,75,30.45,30.34,3,0,5,0.00
2013-1-13,34.2,28.4,22.8,30.7,25.7,20.7,92,90,82,30.53,30.44,4,0,5,0.00
2013-1-14,34.9,30.2,25.3,32.9,27.9,23.2,94,91,84,30.61,30.53,2,0,3,0.00
2013-1-15,38.1,35.7,32.5,36.3,33.8,31.3,95,93,90,30.70,30.62,1,0,3,0.01
2013-1-16,37.6,32.8,28.9,35.6,31.3,27.7,96,94,90,30.70,30.53,3,0,4,0.00
2013-1-17,40.3,33.4,28.9,38.1,31.8,27.7,97,94,89,30.53,30.36,4,0,4,0.00
2013-1-18,43.0,34.6,31.3,40.3,33.0,30.0,96,94,88,30.36,30.30,3,0,5,0.00
2013-1-19,43.2,35.2,30.6,40.6,33.4,29.5,97,93,86,30.37,30.29,2,0,3,0.00
2013-1-20,42.3,34.1,29.7,39.2,32.3,28.2,96,93,87,30.38,30.27,2,0,3,0.00
2013-1-21,42.4,33.6,28.8,38.8,31.6,27.3,96,92,86,30.31,30.18,3,0,4,0.00
2013-1-22,46.9,37.2,29.5,38.7,30.5,25.0,96,78,55,30.20,29.95,5,1,11,0.00
2013-1-23,41.4,37.2,34.3,36.3,30.1,23.9,95,76,58,30.24,29.89,5,1,10,0.20
2013-1-24,46.8,39.3,31.6,44.2,37.7,30.6,97,94,90,30.27,30.13,3,0,5,0.43
2013-1-25,46.9,43.1,39.6,46.2,42.1,38.5,97,96,94,30.18,29.97,2,0,4,0.77
2013-1-26,41.5,37.9,34.7,40.8,36.7,33.6,100,95,93,30.12,29.97,3,0,4,0.37
2013-1-27,39.4,36.5,33.8,38.7,35.2,32.5,97,95,92,30.18,30.08,3,0,4,1.07
2013-1-28,38.8,36.0,33.3,38.3,35.0,32.2,98,96,92,30.22,30.11,4,1,14,2.44
2013-1-29,42.6,40.9,37.8,42.1,40.4,37.2,100,98,98,30.51,30.22,4,1,11,1.74
2013-1-30,45.7,43.1,40.5,45.0,42.4,39.9,98,97,95,30.50,30.45,4,0,7,1.63
2013-1-31,48.0,42.1,39.7,46.2,41.2,38.7,98,96,91,30.50,30.38,2,0,3,0.11
2013-2-1,49.8,41.3,35.8,47.3,40.0,35.2,98,95,89,30.41,30.30,2,0,5,0.00
2013-2-2,53.4,42.2,35.8,45.3,39.0,34.7,98,89,63,30.39,30.29,8,1,10,0.00
2013-2-3,45.7,39.4,33.3,43.3,37.8,31.6,96,94,90,30.38,30.28,1,0,2,0.00
2013-2-4,50.7,42.2,36.9,46.4,39.8,35.6,95,91,78,30.28,29.97,2,0,3,0.00
2013-2-5,46.9,41.3,38.5,45.5,40.1,36.9,100,95,93,30.07,29.96,3,0,9,0.55
2013-2-6,44.8,41.5,39.0,43.5,40.4,38.1,97,96,93,30.14,29.89,2,0,5,0.07
2013-2-7,45.1,38.9,32.7,41.5,36.9,31.1,97,93,76,30.17,29.94,3,0,14,0.20
2013-2-8,40.6,35.2,30.6,37.0,32.9,28.8,100,91,84,30.31,30.18,4,0,6,0.00
2013-2-9,40.6,38.4,35.6,38.8,36.5,34.0,95,93,89,30.34,30.29,1,0,3,0.00
2013-2-10,43.2,40.1,36.9,39.9,37.8,35.6,95,91,82,30.38,30.34,1,0,3,0.00
2013-2-11,42.4,39.7,37.8,40.6,38.1,36.3,96,94,91,30.43,30.35,1,0,3,0.13
2013-2-12,46.9,43.3,39.4,45.9,42.3,38.3,100,96,94,30.51,30.43,2,0,4,0.64
2013-2-13,48.7,44.6,42.6,47.1,43.6,41.2,98,96,91,30.54,30.45,4,0,8,0.29
2013-2-14,48.9,42.9,38.3,46.6,41.2,36.7,96,94,86,30.61,30.55,2,0,3,0.00
2013-2-15,56.8,43.6,34.2,46.9,39.9,33.3,98,88,64,30.55,30.25,8,1,13,0.00
2013-2-16,43.9,39.3,36.0,43.2,38.2,34.3,97,96,93,30.30,30.23,2,0,7,0.40
2013-2-17,41.2,37.5,33.3,39.0,36.0,31.6,97,94,87,30.32,30.14,1,0,4,0.02
2013-2-18,43.9,37.8,33.3,38.7,35.0,31.6,96,90,75,30.13,29.78,1,0,4,0.00
2013-2-19,50.0,39.9,34.2,42.3,35.3,32.2,95,85,52,30.02,29.71,4,0,8,0.00
2013-2-20,44.4,38.9,34.9,39.9,36.2,33.1,95,90,78,30.11,30.03,3,0,6,0.30
2013-2-21,39.4,37.7,35.2,38.1,36.8,34.0,97,96,94,30.22,30.12,3,0,8,0.68
2013-2-22,41.2,39.3,34.3,40.5,38.4,33.3,97,96,95,30.20,29.91,7,1,12,0.59
2013-2-23,39.4,35.7,33.3,38.8,34.8,32.5,98,96,94,30.48,30.07,3,0,8,0.43
2013-2-24,45.5,38.8,35.1,41.2,36.4,33.8,95,91,75,30.49,30.12,2,0,4,0.01
2013-2-25,39.9,37.4,35.6,39.2,36.6,34.7,98,97,94,30.42,30.04,4,1,10,1.12
2013-2-26,44.8,39.2,35.8,40.8,37.1,34.7,100,92,76,30.43,30.30,4,0,6,0.01
2013-2-27,50.4,42.8,37.4,46.6,40.2,36.1,97,91,75,30.36,30.28,2,0,4,0.05
2013-2-28,50.4,45.9,40.6,49.8,45.1,39.6,100,97,95,30.49,30.26,3,0,7,1.54
2013-3-1,55.0,49.9,45.1,53.2,48.5,43.7,97,95,90,30.50,30.35,2,0,4,0.05
2013-3-2,49.5,45.0,39.2,48.0,43.6,38.1,99,95,91,30.35,30.16,4,0,9,0.18
2013-3-3,43.9,38.1,32.0,40.3,36.1,30.6,96,93,76,30.33,30.26,3,0,7,0.01
2013-3-4,50.5,39.0,30.6,36.5,32.2,29.3,96,79,48,30.30,29.96,10,1,13,0.00
2013-3-5,45.3,38.9,34.5,40.8,36.2,32.9,96,90,77,29.96,29.68,5,0,9,0.10
2013-3-6,39.7,38.5,37.4,38.3,37.0,36.1,96,95,88,30.00,29.55,4,0,9,0.93
2013-3-7,51.6,41.0,34.3,44.1,37.5,32.5,97,88,59,30.09,30.01,4,0,6,0.00
2013-3-8,55.2,40.9,32.2,47.5,36.7,30.6,95,86,54,30.26,30.05,3,0,8,0.00
2013-3-9,56.1,41.2,31.8,43.3,35.4,30.4,95,82,46,30.56,30.26,5,0,6,0.00
2013-3-10,49.5,41.2,33.4,44.8,38.9,31.6,95,92,75,30.56,30.46,1,0,2,0.06
2013-3-11,50.0,45.9,42.4,48.0,44.4,41.0,96,94,91,30.47,30.28,1,0,3,0.18
2013-3-12,53.1,47.4,44.1,51.1,46.2,42.8,97,95,93,30.28,30.19,1,0,4,0.07
2013-3-13,62.1,49.3,43.2,55.8,46.6,42.1,96,91,68,30.28,30.13,4,0,6,0.00
2013-3-14,60.8,49.2,43.0,52.2,45.6,41.7,96,88,67,30.24,30.09,3,0,9,0.05
2013-3-15,58.6,51.1,46.6,53.1,47.9,45.0,96,89,68,30.26,30.18,4,0,8,0.01
2013-3-16,47.8,43.3,35.1,45.9,41.9,33.8,97,95,91,30.18,29.99,6,1,10,1.14
2013-3-17,41.9,36.9,34.0,38.8,35.4,32.9,98,94,83,30.32,30.13,5,1,8,0.39
2013-3-18,47.8,39.5,33.6,42.1,36.9,32.4,97,91,67,30.32,30.21,4,0,9,0.00
2013-3-19,51.3,41.1,33.4,41.9,37.9,32.2,96,89,65,30.21,29.72,5,1,8,0.33
2013-3-20,47.3,42.2,36.7,46.8,40.9,35.1,98,95,82,30.16,29.56,6,1,14,0.57
2013-3-21,40.8,35.9,33.4,39.7,34.9,32.4,98,96,91,30.32,30.17,3,1,7,0.65
2013-3-22,39.4,35.2,32.9,37.6,33.9,32.0,97,95,90,30.43,30.31,4,0,8,0.23
2013-3-23,46.0,37.4,32.2,38.3,33.4,23.2,95,86,43,30.43,30.32,4,0,5,0.00
2013-3-24,49.6,40.9,32.4,39.2,34.9,30.7,95,81,57,30.32,30.14,8,1,11,0.00
2013-3-25,57.0,45.1,35.1,43.0,36.5,32.5,95,75,45,30.14,29.94,9,1,11,0.00
2013-3-26,53.4,44.4,36.7,45.7,40.4,34.7,94,86,70,30.04,29.99,2,0,5,0.00
2013-3-27,59.2,47.8,37.9,51.6,43.9,36.3,96,87,62,30.03,29.91,2,0,6,0.14
2013-3-28,61.3,48.5,41.2,51.6,44.8,39.7,96,88,56,30.17,30.03,3,0,7,0.00
2013-3-29,66.6,52.1,43.0,52.9,46.4,41.7,95,82,52,30.23,30.16,3,0,6,0.00
2013-3-30,71.4,54.4,40.6,53.4,45.6,39.6,97,75,45,30.23,30.02,9,2,12,0.00
2013-3-31,75.7,56.5,42.6,52.5,45.7,40.8,94,71,34,30.03,29.88,7,1,7,0.00
2013-4-1,58.3,53.2,50.4,51.6,48.4,46.0,90,84,74,30.18,30.01,2,0,3,0.00
2013-4-2,62.8,53.7,45.3,52.0,48.3,43.2,94,83,61,30.22,30.13,5,0,10,0.00
2013-4-3,66.6,53.5,42.6,52.7,46.5,41.2,95,79,51,30.19,29.94,5,0,8,0.00
2013-4-4,55.0,51.9,49.3,54.0,49.5,45.1,96,92,82,29.94,29.70,4,0,14,0.21
2013-4-5,52.9,49.8,47.7,51.4,48.3,46.2,96,95,91,29.98,29.85,5,1,11,0.60
2013-4-6,47.8,44.9,39.9,46.8,43.8,38.3,97,96,93,30.04,29.76,5,1,12,1.24
2013-4-7,46.8,42.1,39.2,45.7,41.1,38.1,100,96,92,29.97,29.59,7,1,15,1.03
2013-4-8,46.0,42.0,38.7,44.6,40.9,37.9,97,96,94,30.33,29.97,2,0,8,0.20
2013-4-9,54.1,46.3,38.8,49.5,43.6,37.4,97,90,75,30.40,30.29,3,0,4,0.00
2013-4-10,51.8,47.3,42.8,50.2,45.5,41.2,97,94,85,30.36,30.13,8,0,12,0.34
2013-4-11,49.6,44.1,38.7,45.7,41.4,37.6,96,90,75,30.37,30.21,3,0,6,0.00
2013-4-12,52.3,43.7,35.4,44.1,40.0,33.8,97,87,65,30.21,29.86,7,1,9,0.38
2013-4-13,45.5,39.7,33.6,43.2,37.4,32.5,97,92,73,30.11,29.90,6,1,13,0.26
2013-4-14,46.6,40.0,36.3,43.2,38.0,34.7,96,92,81,30.11,29.94,4,0,7,0.51
2013-4-15,50.9,42.2,38.1,40.6,37.8,35.4,95,85,56,30.20,29.96,5,0,11,0.00
2013-4-16,52.7,42.4,36.5,43.2,38.3,34.9,95,86,55,30.44,30.20,5,0,14,0.08
2013-4-17,57.4,44.4,33.1,43.7,37.8,31.5,100,80,39,30.54,30.45,5,0,7,0.00
2013-4-18,55.2,48.8,43.0,47.5,43.2,39.0,95,81,62,30.51,30.34,3,0,6,0.14
2013-4-19,50.2,48.3,46.4,49.3,47.3,45.7,97,96,95,30.34,30.17,6,1,13,2.27
2013-4-20,52.9,47.2,43.9,49.1,45.6,42.8,98,94,81,30.37,30.28,4,0,7,0.41
2013-4-21,48.9,45.4,43.0,46.9,43.8,41.2,96,94,90,30.34,30.26,3,0,5,0.03
2013-4-22,58.6,47.3,36.7,44.1,36.7,28.6,97,72,32,30.46,30.34,11,1,14,0.00
2013-4-23,65.5,49.1,34.0,44.6,36.9,29.7,93,68,28,30.44,30.17,8,1,13,0.00
2013-4-24,75.6,54.8,36.7,48.0,37.7,30.4,91,60,20,30.30,30.02,6,1,9,0.00
2013-4-25,71.8,55.7,41.4,49.1,42.2,37.2,91,65,31,30.18,30.05,4,1,10,0.00
2013-4-26,76.3,58.8,43.7,52.0,42.6,33.1,92,61,21,30.25,30.18,8,1,9,0.00
2013-4-27,69.6,56.3,43.2,47.1,41.7,36.7,89,62,30,30.26,30.18,6,1,13,0.00
2013-4-28,61.2,52.9,47.5,50.5,46.1,40.1,96,80,51,30.27,30.09,3,0,8,0.12
2013-4-29,54.1,47.3,39.0,46.9,40.7,32.5,96,79,48,30.23,30.04,6,1,12,0.67
2013-4-30,52.2,43.3,37.9,39.6,35.9,32.7,92,76,52,30.48,30.23,3,0,12,0.01
2013-5-1,66.9,49.7,33.3,43.7,36.8,30.9,91,66,32,30.54,30.47,7,1,13,0.00
2013-5-2,78.1,59.1,41.7,48.9,39.8,32.5,85,55,19,30.52,30.25,5,1,10,0.00
2013-5-3,79.2,60.5,43.9,50.7,44.9,37.9,90,61,23,30.30,30.13,5,1,13,0.00
2013-5-4,75.7,63.1,46.2,46.9,40.2,33.4,90,49,22,30.16,29.90,11,2,21,0.00
2013-5-5,77.7,66.4,52.5,46.2,40.8,36.1,70,42,25,29.90,29.70,9,2,20,0.00
2013-5-6,79.0,63.3,48.6,56.8,50.2,44.2,85,64,42,29.86,29.73,3,0,6,0.00
2013-5-7,73.0,61.3,50.2,54.3,51.2,47.3,91,71,47,30.01,29.87,4,0,7,0.00
2013-5-8,66.4,57.1,50.2,54.3,50.7,47.5,91,80,62,30.17,30.02,3,0,6,0.00
2013-5-9,75.9,62.7,52.5,57.7,53.3,49.5,89,73,47,30.19,30.08,4,0,7,0.00
2013-5-10,81.9,66.1,51.1,59.4,53.1,48.6,91,67,37,30.20,30.09,3,0,5,0.00
2013-5-11,82.8,68.3,55.9,61.2,56.2,52.0,87,68,43,30.20,29.99,3,0,5,0.00
2013-5-12,67.5,60.6,56.1,62.4,57.1,52.7,93,88,80,30.13,30.06,2,0,3,0.08
2013-5-13,61.7,56.1,48.9,59.0,52.6,44.6,94,88,74,30.22,30.04,8,0,14,0.20
2013-5-14,63.7,53.0,44.1,47.5,42.2,35.1,91,70,36,30.24,30.12,5,1,8,0.00
2013-5-15,56.5,51.0,45.0,51.1,46.1,40.5,92,83,73,30.14,30.05,2,0,5,0.07
2013-5-16,64.0,55.0,51.3,56.7,51.4,49.3,93,88,69,30.05,29.91,4,0,6,0.07
2013-5-17,59.5,52.9,49.3,50.5,48.5,46.8,93,85,68,30.10,29.99,2,0,6,0.05
2013-5-18,53.2,51.2,48.7,51.1,48.7,46.6,93,91,84,30.30,30.11,1,0,2,0.11
2013-5-19,57.7,52.1,48.7,51.8,48.9,46.4,95,89,74,30.43,30.30,4,0,7,0.02
2013-5-20,70.5,56.0,45.9,55.8,48.9,43.7,93,79,49,30.37,29.90,3,0,6,0.00
2013-5-21,54.3,46.0,40.8,48.0,43.5,39.2,94,91,74,29.99,29.80,3,0,11,1.20
2013-5-22,43.3,41.1,39.7,41.5,39.3,37.9,98,93,90,30.00,29.96,3,1,8,1.79
2013-5-23,53.2,45.4,39.9,49.1,43.1,38.1,98,92,82,30.06,30.01,3,0,8,0.97
2013-5-24,56.7,48.1,41.5,50.7,45.4,39.4,96,91,77,30.11,30.01,3,0,6,0.71
2013-5-25,64.8,53.8,47.7,53.6,48.5,45.7,93,83,55,30.09,29.94,4,0,8,0.01
2013-5-26,59.7,54.1,49.8,54.7,50.8,47.1,95,88,73,30.04,29.94,4,0,5,0.48
2013-5-27,59.7,52.8,49.3,57.9,50.7,46.8,95,93,89,30.01,29.76,2,0,5,0.89
2013-5-28,58.6,52.9,49.6,54.1,50.3,48.2,95,91,79,29.95,29.78,3,0,7,0.15
2013-5-29,55.8,51.3,47.8,54.0,49.4,45.3,95,93,86,30.07,29.65,6,1,13,0.78
2013-5-30,60.4,51.5,46.4,52.5,47.8,44.8,95,87,63,30.27,30.07,3,0,9,0.19
2013-5-31,66.7,55.4,48.9,53.4,48.9,46.0,94,80,50,30.35,30.24,5,0,8,0.06
2013-6-1,72.0,58.6,45.7,55.9,49.7,43.3,92,75,44,30.27,30.03,4,0,8,0.00
2013-6-2,65.7,56.7,51.4,54.3,51.2,48.7,92,83,61,30.09,30.03,3,0,8,0.00
2013-6-3,70.9,59.2,51.3,57.7,51.7,48.7,91,78,49,30.10,30.03,3,0,6,0.00
2013-6-4,83.8,64.7,47.8,61.2,52.6,45.5,92,69,32,30.07,29.95,2,0,9,0.00
2013-6-5,80.4,66.6,53.1,61.2,54.4,46.2,92,68,31,30.05,29.96,3,0,8,0.00
2013-6-6,79.7,67.3,55.6,61.9,56.5,51.3,92,71,41,30.04,29.96,7,0,8,0.00
2013-6-7,74.5,64.1,52.9,56.5,50.5,39.0,90,65,29,30.14,30.04,5,0,8,0.00
2013-6-8,75.7,62.5,50.7,54.3,48.5,39.2,92,65,28,30.15,30.05,4,0,8,0.00
2013-6-9,68.9,57.6,50.0,53.8,48.5,44.2,90,74,42,30.10,29.97,6,0,10,0.00
2013-6-10,66.4,56.1,48.0,51.6,46.6,43.9,91,72,51,30.02,29.89,3,0,8,0.00
2013-6-11,59.5,53.0,49.6,49.6,46.3,43.2,92,78,60,30.15,29.97,4,0,12,0.08
2013-6-12,60.6,53.1,49.8,52.2,48.9,47.3,93,86,63,30.19,30.14,3,0,6,0.01
2013-6-13,57.0,52.2,48.2,54.3,50.0,46.2,98,92,84,30.30,30.18,3,0,5,0.47
2013-6-14,68.0,56.6,50.2,54.9,50.9,48.4,94,82,56,30.30,30.00,4,0,7,0.00
2013-6-15,76.5,61.5,46.6,59.9,52.0,44.2,93,73,44,30.01,29.90,3,0,5,0.00
2013-6-16,70.5,61.2,51.6,59.2,54.2,49.3,92,79,59,30.10,30.01,3,0,7,0.00
2013-6-17,73.8,63.8,55.0,56.8,53.1,50.2,86,70,49,30.10,29.92,3,0,8,0.00
2013-6-18,67.5,57.8,52.2,53.4,50.6,45.1,93,79,47,30.00,29.90,5,0,13,0.28
2013-6-19,57.4,53.3,50.9,55.0,50.9,48.9,94,92,83,30.11,29.96,2,0,4,0.20
2013-6-20,60.1,53.8,49.8,55.6,51.4,48.2,95,92,77,30.15,30.06,4,0,8,0.42
2013-6-21,63.7,55.5,51.1,56.7,51.8,48.7,94,88,63,30.19,30.13,2,0,4,0.00
2013-6-22,76.5,61.8,47.7,59.5,52.9,45.5,93,75,48,30.15,29.86,2,0,8,0.00
2013-6-23,72.1,62.0,58.3,62.2,58.0,54.9,94,87,62,29.86,29.63,2,0,4,0.37
2013-6-24,60.8,57.5,54.0,57.7,55.0,52.3,95,91,84,29.71,29.63,2,0,4,0.16
2013-6-25,64.9,58.7,55.8,61.7,56.6,54.0,94,93,85,29.89,29.69,2,0,5,0.32
2013-6-26,64.4,59.4,55.9,60.6,57.3,54.3,95,93,83,30.08,29.88,3,0,7,0.08
2013-6-27,78.4,66.3,57.6,66.7,60.8,55.8,95,84,58,30.17,30.04,4,0,9,0.00
2013-6-28,87.1,72.7,59.0,70.7,63.8,57.2,94,76,44,30.15,30.00,3,0,6,0.00
2013-6-29,84.6,72.3,62.8,65.5,61.8,56.7,92,72,40,30.09,29.96,3,0,8,0.00
2013-6-30,91.9,75.4,59.2,72.9,65.3,56.5,92,73,48,29.99,29.80,3,0,6,0.00
2013-7-1,87.6,75.0,65.5,71.1,66.7,61.9,93,77,54,29.98,29.87,4,0,6,0.00
2013-7-2,86.5,74.2,64.9,72.3,64.9,57.6,93,75,42,30.04,29.98,5,0,10,0.00
2013-7-3,80.8,69.0,58.6,60.8,56.1,45.9,92,67,33,30.11,30.00,4,0,10,0.00
2013-7-4,71.2,61.3,52.9,56.7,51.9,49.3,88,72,55,30.13,30.01,4,0,10,0.00
2013-7-5,66.7,58.2,54.0,56.5,51.8,48.9,90,79,64,30.06,29.95,2,0,5,0.00
2013-7-6,73.0,61.5,53.4,59.4,54.6,50.5,92,79,58,29.98,29.85,5,0,6,0.00
2013-7-7,73.8,62.6,53.1,60.6,56.1,50.5,92,80,60,29.96,29.86,3,0,7,0.00
2013-7-8,79.0,65.8,56.8,60.8,57.0,53.4,90,75,48,30.07,29.96,4,0,8,0.00
2013-7-9,84.7,69.9,56.1,67.5,59.8,53.2,90,72,45,30.06,29.96,4,0,7,0.00
2013-7-10,79.9,66.9,56.8,61.0,56.2,49.6,93,71,38,30.03,29.91,4,0,9,0.00
2013-7-11,71.8,59.7,50.4,53.8,48.9,46.2,87,69,41,30.08,29.95,4,0,9,0.00
2013-7-12,69.1,58.7,47.7,54.5,49.6,45.0,91,73,49,30.11,29.99,6,0,10,0.00
2013-7-13,77.9,63.0,47.8,59.0,52.4,45.1,91,71,47,30.16,30.02,6,0,10,0.00
2013-7-14,83.5,66.8,52.2,63.0,53.8,48.7,89,66,31,30.08,29.94,5,0,9,0.00
2013-7-15,84.7,67.9,52.2,61.7,55.5,48.4,87,67,40,30.00,29.78,4,0,6,0.00
2013-7-16,85.8,71.3,58.1,60.3,54.9,48.7,85,60,28,29.95,29.75,4,0,8,0.00
2013-7-17,76.5,63.8,56.7,62.1,56.7,53.2,92,79,55,30.17,29.96,3,0,5,0.06
2013-7-18,80.2,65.0,52.5,62.8,54.6,50.0,92,72,36,30.19,30.06,3,0,5,0.00
2013-7-19,78.6,65.1,51.6,62.1,56.2,48.7,90,74,53,30.13,29.99,3,0,6,0.00
2013-7-20,74.8,63.9,57.6,62.6,58.0,54.7,92,82,63,30.06,29.94,2,0,5,0.00
2013-7-21,79.3,65.5,56.1,63.1,57.1,53.8,93,76,45,29.97,29.88,3,0,8,0.00
2013-7-22,80.4,65.6,54.9,60.8,56.3,52.3,93,74,44,30.01,29.93,3,0,5,0.00
2013-7-23,84.9,69.0,53.4,63.3,57.1,49.3,87,69,42,30.02,29.92,3,0,5,0.00
2013-7-24,86.4,71.2,58.5,63.3,58.3,53.4,91,67,33,30.01,29.94,3,0,6,0.00
2013-7-25,86.9,70.5,57.0,61.7,56.2,49.6,87,64,29,30.04,29.99,3,0,6,0.00
2013-7-26,85.5,69.6,55.8,62.1,55.7,50.2,89,64,35,30.14,30.04,4,0,8,0.00
2013-7-27,75.9,63.2,50.5,54.0,50.5,45.3,89,66,35,30.17,29.99,3,0,8,0.00
2013-7-28,71.4,60.3,51.1,55.6,51.7,47.8,92,74,53,30.04,29.96,6,0,8,0.00
2013-7-29,75.2,62.9,54.1,58.5,53.6,50.0,87,73,48,30.02,29.93,4,0,6,0.00
2013-7-30,79.5,65.1,52.7,61.5,54.9,50.2,92,72,43,30.12,30.02,3,0,10,0.00
2013-7-31,73.8,63.6,55.8,63.3,57.4,52.5,89,81,66,30.10,29.99,4,0,6,0.00
2013-8-1,62.8,58.8,57.0,59.2,55.5,54.0,93,89,83,30.12,30.03,2,0,4,0.02
2013-8-2,64.8,59.6,56.1,57.9,55.4,53.8,93,86,75,30.16,30.11,1,0,4,0.00
2013-8-3,80.1,65.6,55.0,62.6,57.0,52.3,91,76,46,30.12,29.97,3,0,9,0.00
2013-8-4,85.5,69.1,55.8,66.7,59.8,53.1,92,74,47,30.01,29.87,3,0,7,0.00
2013-8-5,86.2,70.8,58.5,66.0,60.3,55.8,91,72,43,29.97,29.88,2,0,7,0.00
2013-8-6,88.9,71.4,59.0,63.9,55.6,43.3,91,63,22,29.96,29.87,6,0,7,0.00
2013-8-7,84.2,69.0,55.6,59.9,54.9,50.7,85,63,35,30.02,29.92,3,0,8,0.00
2013-8-8,78.1,67.0,58.8,62.4,58.3,54.7,86,75,56,30.02,29.90,3,0,7,0.00
2013-8-9,79.9,66.7,60.1,64.0,60.1,57.2,93,80,54,29.94,29.82,5,0,9,0.10
2013-8-10,76.3,64.9,57.9,66.9,61.2,55.9,95,88,67,30.02,29.91,3,0,4,0.02
2013-8-11,74.7,65.8,59.5,63.1,59.8,56.3,93,82,62,30.06,29.96,7,0,8,0.00
2013-8-12,75.7,65.0,56.7,62.1,57.8,54.3,92,79,57,30.05,29.99,4,0,10,0.00
2013-8-13,84.4,68.1,56.3,62.2,56.3,51.6,91,69,33,30.08,29.92,3,0,5,0.00
2013-8-14,81.9,68.3,57.6,61.7,56.5,52.3,84,67,46,29.96,29.90,2,0,7,0.00
2013-8-15,79.2,69.5,61.9,64.2,60.4,55.6,85,74,56,29.96,29.91,4,0,9,0.00
2013-8-16,80.6,69.5,63.3,68.0,63.2,60.3,93,81,62,30.01,29.94,2,0,4,0.00
2013-8-17,80.4,68.5,59.4,62.4,59.0,56.8,92,74,47,30.06,29.99,5,0,9,0.00
2013-8-18,81.1,67.1,56.1,62.6,57.5,53.6,92,74,41,30.12,30.03,3,0,8,0.00
2013-8-19,81.3,67.3,56.7,61.5,56.1,53.1,90,70,42,30.09,30.01,4,0,9,0.00
2013-8-20,79.9,66.7,57.7,58.8,55.6,52.7,85,69,42,30.10,29.98,3,0,6,0.00
2013-8-21,91.2,69.4,53.1,63.9,54.3,49.8,90,64,26,30.00,29.83,5,0,8,0.00
2013-8-22,80.8,67.4,57.7,63.3,57.9,51.1,92,72,49,29.89,29.83,3,0,5,0.02
2013-8-23,68.9,62.1,58.6,63.0,58.6,55.6,94,89,69,29.93,29.86,1,0,4,0.03
2013-8-24,72.7,63.2,58.5,59.5,56.4,53.6,92,80,55,29.91,29.83,4,0,8,0.00
2013-8-25,66.7,59.8,54.3,62.1,56.3,51.4,92,88,80,29.93,29.88,2,0,6,0.02
2013-8-26,76.3,64.8,58.5,63.0,57.3,52.7,94,78,47,29.97,29.89,5,0,7,0.05
2013-8-27,83.7,68.4,56.8,62.6,57.7,52.0,85,70,45,29.98,29.76,5,0,9,0.00
2013-8-28,80.2,69.1,60.8,67.5,61.7,58.8,96,79,54,29.89,29.81,3,0,7,0.11
2013-8-29,73.0,66.2,62.8,67.5,62.7,59.9,94,89,66,30.07,29.81,3,0,7,0.17
2013-8-30,76.8,67.2,61.0,65.5,61.4,57.2,94,83,55,30.15,30.03,5,0,6,0.04
2013-8-31,87.4,69.9,56.8,67.3,60.4,54.3,92,74,44,30.05,29.81,3,0,5,0.00
2013-9-1,81.1,68.4,58.8,63.1,59.1,56.1,91,74,47,29.88,29.77,5,0,7,0.00
2013-9-2,78.6,68.3,60.4,62.4,59.0,55.6,86,73,53,29.91,29.84,5,0,11,0.00
2013-9-3,75.6,65.8,59.2,63.0,59.1,54.7,91,80,60,29.99,29.91,3,0,9,0.02
2013-9-4,68.2,62.3,56.5,61.0,57.3,53.6,91,84,72,30.05,29.98,1,0,4,0.00
2013-9-5,64.6,61.1,56.8,60.6,58.3,55.0,94,91,85,30.05,29.94,4,0,14,0.22
2013-9-6,62.6,58.7,56.1,60.6,57.0,54.5,96,94,92,30.16,30.03,4,0,6,1.70
2013-9-7,79.5,63.1,52.0,66.7,58.6,50.4,95,86,57,30.13,29.95,4,0,6,0.00
2013-9-8,82.6,66.8,57.0,66.2,60.3,54.7,93,81,53,30.05,29.98,4,0,8,0.00
2013-9-9,79.9,66.6,57.6,66.2,60.3,55.0,93,82,52,30.01,29.91,3,0,5,0.00
2013-9-10,89.1,71.1,58.3,68.0,59.4,53.8,94,71,36,29.92,29.78,4,1,10,0.00
2013-9-11,93.0,74.6,61.9,67.5,60.1,57.2,87,65,32,29.91,29.82,6,1,10,0.00
2013-9-12,81.7,67.7,57.0,66.0,60.5,54.5,92,79,57,29.97,29.87,3,0,6,0.00
2013-9-13,77.4,65.8,60.3,65.7,60.8,57.6,93,84,66,29.94,29.81,3,0,8,0.00
2013-9-14,80.8,66.9,57.0,66.9,60.9,55.0,94,82,61,29.84,29.67,3,0,5,0.00
2013-9-15,63.3,61.5,58.8,61.0,59.2,57.4,95,92,87,29.88,29.69,1,0,3,0.17
2013-9-16,65.5,59.4,56.5,60.4,56.9,54.9,95,91,78,29.99,29.88,2,0,3,0.02
2013-9-17,63.7,57.2,53.4,55.9,53.8,52.0,95,89,66,30.00,29.85,2,0,7,0.36
2013-9-18,65.5,55.5,48.9,57.2,52.7,46.8,96,90,63,30.11,30.00,2,0,4,0.07
2013-9-19,76.6,59.4,47.5,58.1,50.6,45.5,96,76,42,30.04,29.79,6,0,8,0.00
2013-9-20,71.6,58.2,48.6,58.3,51.8,46.0,93,80,51,29.79,29.64,5,0,8,0.03
2013-9-21,65.5,57.7,55.0,59.7,55.2,53.1,95,91,76,29.77,29.67,3,0,4,0.34
2013-9-22,56.5,54.3,52.3,54.5,52.7,50.7,96,94,91,29.88,29.69,3,0,7,0.48
2013-9-23,56.3,54.0,52.2,54.5,52.4,50.7,96,94,91,30.01,29.88,2,0,5,0.82
2013-9-24,55.2,51.7,48.2,52.5,49.8,46.6,95,93,86,30.00,29.86,2,0,5,0.45
2013-9-25,52.7,49.6,47.8,50.4,48.0,46.2,95,94,91,30.04,29.86,2,0,4,0.32
2013-9-26,57.9,51.7,49.1,52.7,49.3,47.5,95,91,74,30.19,30.04,2,0,4,0.14
2013-9-27,55.6,52.2,49.5,52.7,50.1,47.5,94,92,87,30.19,29.93,1,0,4,0.04
2013-9-28,58.5,55.6,49.6,57.4,54.2,48.2,96,95,92,29.93,29.50,7,1,11,0.03
2013-9-29,55.9,51.2,49.6,54.9,49.8,48.2,97,95,94,29.70,29.36,6,1,15,0.02
2013-9-30,52.5,49.2,47.5,51.4,47.8,46.0,96,95,93,30.03,29.62,6,1,10,0.02
2013-10-1,52.5,48.3,45.7,50.2,46.6,43.7,96,94,89,30.24,30.00,3,0,6,0.01
2013-10-2,53.2,46.5,43.5,49.6,44.3,41.4,94,92,82,30.22,30.09,5,0,8,0.01
2013-10-3,51.4,46.6,42.4,48.9,44.6,40.6,95,93,89,30.47,30.21,1,0,2,0.01
2013-10-4,64.8,49.3,39.6,53.4,45.3,37.9,96,87,60,30.50,30.38,3,0,5,0.00
2013-10-5,72.1,53.3,41.7,59.7,48.1,39.9,95,84,53,30.40,30.17,2,0,8,0.00
2013-10-6,72.9,54.3,44.6,59.4,48.3,43.0,95,82,42,30.18,29.99,2,0,4,0.00
2013-10-7,54.0,50.0,47.8,52.0,48.3,45.5,96,94,91,30.15,29.99,4,0,6,0.14
2013-10-8,49.8,47.1,43.2,48.4,45.7,41.4,96,95,90,30.15,29.99,2,0,7,0.04
2013-10-9,57.6,45.9,37.8,51.3,43.3,36.1,96,91,65,30.12,30.01,3,0,4,0.02
2013-10-10,55.6,49.0,43.7,49.3,45.9,41.5,93,89,74,30.11,29.98,2,0,3,0.01
2013-10-11,55.2,50.3,47.7,49.3,46.8,45.0,94,88,71,30.16,30.10,2,0,4,0.00
2013-10-12,51.4,48.1,43.5,49.3,45.9,41.4,94,92,90,30.20,30.08,1,0,3,0.00
2013-10-13,62.2,47.4,39.0,54.7,44.2,37.2,94,89,68,30.35,30.19,2,0,4,0.00
2013-10-14,63.9,48.9,40.6,52.5,43.0,38.8,94,82,46,30.39,30.32,6,0,10,0.00
2013-10-15,63.0,49.0,38.8,47.3,41.9,37.0,97,79,46,30.38,30.17,4,1,8,0.00
2013-10-16,64.6,49.4,41.4,51.1,44.2,39.0,92,83,55,30.19,30.11,3,0,4,0.00
2013-10-17,66.6,50.8,41.5,54.5,45.4,39.9,95,83,51,30.24,30.16,6,0,9,0.00
2013-10-18,66.9,52.3,43.0,50.0,44.3,40.8,92,77,44,30.22,30.11,7,1,11,0.00
2013-10-19,67.8,50.5,40.5,53.1,44.7,38.3,93,82,53,30.18,30.11,2,0,4,0.00
2013-10-20,67.1,51.1,40.8,54.5,46.4,38.7,93,85,63,30.18,30.08,2,0,4,0.00
2013-10-21,73.9,55.8,45.5,57.2,48.5,43.9,95,79,42,30.12,30.02,7,0,11,0.00
2013-10-22,74.8,58.7,48.4,54.0,48.7,45.3,90,73,41,30.07,29.97,8,1,9,0.00
2013-10-23,72.3,57.3,47.8,53.4,48.9,45.3,91,76,45,30.01,29.94,7,1,10,0.00
2013-10-24,70.3,55.8,46.9,57.0,49.9,44.6,93,82,58,30.10,29.97,2,0,4,0.00
2013-10-25,53.1,49.1,45.3,50.0,46.9,43.2,95,92,88,30.29,30.10,2,0,4,0.00
2013-10-26,52.0,47.7,42.1,48.9,45.5,40.5,95,92,89,30.31,30.17,2,0,7,0.00
2013-10-27,49.8,47.7,44.2,48.0,45.8,42.6,95,93,90,30.18,29.83,2,0,5,0.16
2013-10-28,52.3,45.6,36.7,45.9,36.8,31.8,95,73,47,29.94,29.82,12,2,16,0.00
2013-10-29,55.6,41.7,33.4,41.0,35.1,31.3,92,79,42,30.10,29.94,3,0,5,0.00
2013-10-30,54.7,43.6,34.3,43.7,37.4,32.0,91,80,53,30.23,30.09,2,0,4,0.00
2013-10-31,52.5,49.0,45.5,50.2,46.8,42.4,95,92,87,30.31,30.20,3,0,5,0.06
2013-11-1,58.1,49.9,41.7,54.9,47.6,39.9,95,92,86,30.32,29.92,2,0,4,0.00
2013-11-2,50.5,46.4,41.2,48.9,44.8,39.7,96,94,85,30.06,29.74,6,1,12,0.02
2013-11-3,44.6,41.7,39.9,43.2,40.3,38.7,100,95,92,30.17,30.05,3,1,7,0.59
2013-11-4,45.1,43.3,41.2,43.0,41.6,39.9,95,94,92,30.21,30.14,2,0,4,0.35
2013-11-5,50.4,47.6,44.1,49.3,46.1,42.3,96,95,93,30.27,30.13,3,0,5,0.73
2013-11-6,53.1,50.6,48.4,51.4,48.9,46.8,95,94,93,30.32,30.10,2,0,3,0.61
2013-11-7,52.5,48.0,45.0,51.4,46.5,43.3,96,95,91,30.12,29.88,8,1,14,0.88
2013-11-8,48.0,45.0,41.0,46.0,43.5,39.4,96,94,92,30.22,30.12,3,0,9,0.12
2013-11-9,49.8,45.0,39.9,47.8,43.3,38.1,95,94,91,30.16,30.06,2,0,4,0.00
2013-11-10,58.8,50.7,46.4,55.6,48.5,44.6,95,92,87,30.11,30.06,4,0,6,0.00
2013-11-11,55.6,50.6,46.9,44.8,42.6,40.5,90,74,61,30.20,30.06,12,3,15,0.00
2013-11-12,54.7,51.0,47.5,52.7,48.6,41.9,94,91,70,30.45,30.11,3,0,7,0.16
2013-11-13,54.9,49.1,41.0,51.6,46.9,39.2,95,92,81,30.49,30.31,2,0,5,0.02
2013-11-14,45.7,43.0,39.6,44.4,41.3,37.9,95,94,92,30.31,30.11,2,0,3,0.37
2013-11-15,44.4,42.2,41.4,42.8,41.0,39.7,96,95,94,30.12,29.52,7,1,12,0.77
2013-11-16,44.8,42.2,38.5,43.7,40.9,36.9,100,95,93,29.85,29.48,5,1,12,0.83
2013-11-17,48.9,45.4,42.4,45.9,43.5,41.2,96,93,86,30.02,29.86,4,0,10,0.11
2013-11-18,50.5,47.8,45.5,48.4,46.0,43.7,95,94,91,30.00,29.74,1,0,4,0.39
2013-11-19,51.1,45.9,37.2,50.0,44.5,35.1,96,95,91,30.02,29.70,4,1,10,0.69
2013-11-20,42.1,34.7,28.6,36.5,31.5,23.7,94,88,65,30.45,30.03,5,0,11,0.00
2013-11-21,43.9,32.4,25.9,31.5,23.8,18.0,90,73,36,30.66,30.45,7,1,10,0.00
2013-11-22,45.1,38.9,31.6,24.6,20.5,16.2,72,48,34,30.65,30.48,8,2,24,0.00
2013-11-23,48.6,42.6,39.0,27.9,23.3,18.5,60,46,34,30.48,30.21,11,4,20,0.00
2013-11-24,49.3,40.5,34.0,38.7,31.6,23.0,90,71,50,30.32,30.18,5,1,11,0.00
2013-11-25,49.1,38.7,32.4,42.4,34.8,30.4,96,86,71,30.36,30.31,1,0,4,0.00
2013-11-26,49.3,39.8,33.1,43.7,36.8,31.3,99,89,79,30.32,30.11,2,0,3,0.00
2013-11-27,52.5,44.1,39.4,38.3,34.7,31.6,91,70,49,30.11,29.99,9,2,13,0.00
2013-11-28,52.3,42.2,36.3,44.2,36.8,32.4,92,81,64,30.22,30.04,3,0,5,0.00
2013-11-29,47.7,40.1,34.0,42.6,37.3,32.0,93,90,81,30.40,30.23,1,0,3,0.01
2013-11-30,51.3,45.5,41.7,47.8,43.2,39.6,94,92,87,30.42,30.26,1,0,3,0.15
2013-12-1,52.0,50.2,45.9,50.9,49.0,43.9,96,95,92,30.26,29.88,8,2,18,6.10
2013-12-2,48.6,38.5,34.9,47.5,37.2,33.3,96,95,92,30.06,29.87,5,1,11,1.09
2013-12-3,37.2,32.8,25.9,34.3,29.6,23.7,95,88,68,30.31,30.06,7,1,12,0.09
2013-12-4,33.1,26.3,21.7,24.6,21.0,15.6,92,81,55,30.38,30.31,7,1,10,0.00
2013-12-5,31.8,24.9,19.9,22.6,17.7,12.6,90,75,54,30.36,30.23,7,1,12,0.00
2013-12-6,25.3,23.3,20.8,17.8,13.7,10.8,86,67,59,30.23,30.03,11,4,25,0.00
2013-12-7,24.6,19.4,13.5,12.4,9.1,7.0,84,64,49,30.48,30.12,10,3,15,0.00
2013-12-8,27.1,18.8,12.4,16.3,12.2,8.6,92,76,50,30.66,30.48,3,0,5,0.00
2013-12-9,31.6,24.1,16.5,28.2,20.0,13.6,92,84,73,30.67,30.59,1,0,3,0.00
2013-12-10,37.6,32.4,29.3,34.7,29.9,27.3,93,90,87,30.60,30.44,1,0,3,0.02
2013-12-11,40.3,32.4,27.7,37.2,30.5,25.9,100,92,88,30.44,30.24,2,0,3,0.00
2013-12-12,38.1,34.5,30.4,35.8,32.8,28.4,95,93,91,30.27,30.16,3,0,4,0.24
2013-12-13,42.3,38.8,36.7,40.1,37.0,35.1,94,93,91,30.50,30.26,1,0,3,0.35
2013-12-14,44.4,37.7,33.4,42.8,36.0,31.8,95,94,92,30.51,30.43,2,0,3,0.00
2013-12-15,43.9,39.6,33.4,42.3,37.9,31.8,95,94,92,30.53,30.47,1,0,3,0.03
2013-12-16,45.0,38.3,33.6,43.0,36.6,32.0,95,93,91,30.51,30.27,2,0,3,0.00
2013-12-17,39.6,35.0,32.5,37.8,33.2,30.7,95,93,89,30.28,30.20,2,0,4,0.00
2013-12-18,41.2,37.9,33.8,39.6,36.1,32.0,95,93,91,30.21,30.06,3,0,5,0.05
2013-12-19,37.0,34.1,30.7,34.7,31.9,28.9,94,92,90,30.34,30.13,2,0,4,0.00
2013-12-20,44.4,35.3,33.1,43.5,33.5,30.7,97,93,89,30.25,29.91,2,0,4,1.29
2013-12-21,45.3,44.5,43.2,44.1,43.3,41.9,97,96,95,30.25,29.95,2,0,6,0.57
2013-12-22,47.8,45.1,43.2,46.8,43.7,41.5,96,95,93,30.39,30.25,2,0,4,0.47
2013-12-23,48.4,43.9,39.2,47.3,42.4,37.4,96,95,92,30.58,30.31,4,0,15,1.71
2013-12-24,42.3,37.5,32.7,40.3,35.8,30.9,96,93,90,30.65,30.52,2,0,3,0.00
2013-12-25,40.8,34.6,31.3,38.5,32.8,29.5,94,93,90,30.52,30.42,2,0,3,0.00
2013-12-26,41.9,36.1,32.2,39.2,34.1,30.4,95,93,89,30.43,30.25,1,0,2,0.00
2013-12-27,43.3,37.9,32.7,41.0,36.1,30.9,95,93,91,30.43,30.22,1,0,2,0.02
2013-12-28,43.3,40.5,35.2,41.5,38.7,33.4,95,93,91,30.53,30.42,2,0,5,0.00
2013-12-29,43.3,36.9,32.9,40.8,34.9,31.1,97,92,89,30.49,30.32,1,0,3,0.00
2013-12-30,43.0,39.8,36.5,40.8,38.1,34.7,95,94,90,30.33,30.17,4,0,5,0.00
2013-12-31,47.1,42.2,38.7,45.0,40.3,36.9,94,93,91,30.39,30.27,1,0,3,0.00
2014-1-1,48.9,40.5,34.5,46.0,38.6,33.3,96,93,89,30.40,30.29,2,0,3,0.00
2014-1-2,48.4,40.5,35.1,45.3,38.5,33.4,95,93,86,30.31,30.06,2,0,3,0.22